Disclaimer

Please do not use the information listed here in-flight or in-navigation, as they are not provided to us by the airports but are provided by volunteers, so they might be outdated.

Search


Regions


Airport information page

Radio informations:
Tower (TWR) - 119.7 MHz
APRON - 121.75 MHz
Ground (GND) - 121.9 MHz
MUNCHEN RADAR - 125.625 MHz
MUNCHEN INFO - 125.8 MHz

Airport informations:
Latitude: 51° 07' 57.96" N
Longitude: 013° 46' 01.78" E
Elevation: 755 feet - 230 meters
Operating hours: 24 hour operations
Operating agency: Civil government, landing fees and diplomatic clearance may be required
Timezone: UTC+1(+2DT) - Last Sunday in March to last Sunday in October
Fuel: Jet A, without icing inhibitor.

100/130 MIL Spec, low lead, aviation gasoline (BLUE)

Runway information:
04/22 - 8228 x 167 feet< - >2508 x 51 meters

Recent METARs:
EDDC 211920Z 07010KT 7000 BKN005 01/M01 Q1020 NOSIG
EDDC 211950Z 08010KT 6000 BKN005 01/M01 Q1020 TEMPO 4500 BR BKN004
EDDC 212020Z 09009KT 6000 BKN005 00/M01 Q1021 TEMPO 4500 BR BKN004

Airport on the map: